createdAt,value
2019-02-03T00:00:44.512Z,59.93
2019-02-03T00:03:14.119Z,62.27
2019-02-03T00:05:43.565Z,56.53
2019-02-03T00:08:13.107Z,57.57
2019-02-03T00:10:42.523Z,61.23
2019-02-03T00:13:12.211Z,54.73
2019-02-03T00:15:41.646Z,64.67
2019-02-03T00:18:11.290Z,61.27
2019-02-03T00:20:40.816Z,59.30
2019-02-03T00:23:10.385Z,59.53
2019-02-03T00:25:39.885Z,57.97
2019-02-03T00:28:09.361Z,61.20
2019-02-03T00:30:39.211Z,61.67
2019-02-03T00:33:08.673Z,58.47
2019-02-03T00:35:38.084Z,62.80
2019-02-03T00:38:07.760Z,56.13
2019-02-03T00:40:38.671Z,57.27
2019-02-03T00:43:08.331Z,59.93
2019-02-03T00:45:37.757Z,64.97
2019-02-03T00:48:07.275Z,57.07
2019-02-03T00:50:36.680Z,57.77
2019-02-03T00:53:06.346Z,57.43
2019-02-03T00:55:35.764Z,66.37
2019-02-03T00:58:05.629Z,59.80
2019-02-03T01:00:35.055Z,62.23
2019-02-03T01:03:04.995Z,64.47
2019-02-03T01:05:34.413Z,60.23
2019-02-03T01:08:03.961Z,66.67
2019-02-03T01:10:33.398Z,63.97
2019-02-03T01:13:02.841Z,62.20
2019-02-03T01:15:32.545Z,56.10
2019-02-03T01:18:02.122Z,65.00
2019-02-03T01:20:31.544Z,60.83
2019-02-03T01:23:01.202Z,66.63
2019-02-03T01:25:30.617Z,62.07
2019-02-03T01:28:00.241Z,61.67
2019-02-03T01:30:29.660Z,65.00
2019-02-03T01:32:59.080Z,56.67
2019-02-03T01:35:28.521Z,63.23
2019-02-03T01:37:57.938Z,62.93
2019-02-03T01:40:27.385Z,78.33
2019-02-03T01:42:56.809Z,61.50
2019-02-03T01:45:26.272Z,76.43
2019-02-03T01:47:55.703Z,59.27
2019-02-03T01:50:25.474Z,63.97
2019-02-03T01:52:54.905Z,63.10
2019-02-03T01:55:25.400Z,58.30
2019-02-03T01:57:54.840Z,62.07
2019-02-03T02:00:26.740Z,58.00
2019-02-03T02:02:56.474Z,62.73
2019-02-03T02:05:26.137Z,58.10
2019-02-03T02:07:55.573Z,54.47
2019-02-03T02:10:27.217Z,56.27
2019-02-03T02:12:56.839Z,60.60
2019-02-03T02:15:26.290Z,58.90
2019-02-03T02:17:55.791Z,58.30
2019-02-03T02:20:26.952Z,58.40
2019-02-03T02:22:57.272Z,55.20
2019-02-03T02:25:26.726Z,58.77
2019-02-03T02:27:56.153Z,57.40
2019-02-03T02:30:26.702Z,57.17
2019-02-03T02:32:56.125Z,56.80
2019-02-03T02:35:25.590Z,57.40
2019-02-03T02:38:05.842Z,54.30
2019-02-03T02:40:26.858Z,60.80
2019-02-03T02:42:56.682Z,57.90
2019-02-03T02:45:26.290Z,50.60
2019-02-03T02:47:55.745Z,51.50
2019-02-03T02:50:27.782Z,58.57
2019-02-03T02:52:57.253Z,58.73
2019-02-03T02:55:26.733Z,54.97
2019-02-03T02:57:56.219Z,48.03
2019-02-03T03:00:25.845Z,51.77
2019-02-03T03:02:55.521Z,53.10
2019-02-03T03:05:24.917Z,48.17
2019-02-03T03:07:54.367Z,48.67
2019-02-03T03:10:24.184Z,46.50
2019-02-03T03:12:53.633Z,45.73
2019-02-03T03:15:23.098Z,42.93
2019-02-03T03:17:52.549Z,40.87
2019-02-03T03:20:22.228Z,43.13
2019-02-03T03:22:51.972Z,46.20
2019-02-03T03:25:22.037Z,38.50
2019-02-03T03:27:51.509Z,41.53
2019-02-03T03:30:25.914Z,40.80
2019-02-03T03:32:55.493Z,38.37
2019-02-03T03:35:25.630Z,44.70
2019-02-03T03:37:55.268Z,39.90
2019-02-03T03:40:26.895Z,39.83
2019-02-03T03:42:56.560Z,33.80
2019-02-03T03:45:26.420Z,43.80
2019-02-03T03:47:56.069Z,28.10
2019-02-03T03:50:25.494Z,40.23
2019-02-03T03:52:54.969Z,42.37
2019-02-03T03:55:24.389Z,44.27
2019-02-03T03:57:53.871Z,46.93
2019-02-03T04:00:25.000Z,46.43
2019-02-03T04:02:54.659Z,43.17
2019-02-03T04:05:24.182Z,44.50
2019-02-03T04:07:53.637Z,43.13
2019-02-03T04:10:24.243Z,40.80
2019-02-03T04:12:53.798Z,45.33
2019-02-03T04:15:23.529Z,47.43
2019-02-03T04:17:52.971Z,40.70
2019-02-03T04:20:27.587Z,46.10
2019-02-03T04:22:57.029Z,49.03
2019-02-03T04:25:26.810Z,39.57
2019-02-03T04:27:56.656Z,42.57
2019-02-03T04:30:26.765Z,43.67
2019-02-03T04:32:56.191Z,38.90
2019-02-03T04:35:25.614Z,40.40
2019-02-03T04:37:55.079Z,39.53
2019-02-03T04:40:25.114Z,43.10
2019-02-03T04:42:54.572Z,42.60
2019-02-03T04:45:24.108Z,35.40
2019-02-03T04:47:53.624Z,35.20
2019-02-03T04:50:23.405Z,35.30
2019-02-03T04:52:52.825Z,40.57
2019-02-03T04:55:22.908Z,34.17
2019-02-03T04:57:52.378Z,32.77
2019-02-03T05:00:25.281Z,31.13
2019-02-03T05:02:54.715Z,32.90
2019-02-03T05:05:24.207Z,29.20
2019-02-03T05:07:54.027Z,27.40
2019-02-03T05:10:23.583Z,28.10
2019-02-03T05:12:53.065Z,26.00
2019-02-03T05:15:24.264Z,28.63
2019-02-03T05:17:54.000Z,30.83
2019-02-03T05:20:25.890Z,24.80
2019-02-03T05:22:55.628Z,27.33
2019-02-03T05:25:25.094Z,28.17
2019-02-03T05:27:54.496Z,23.70
2019-02-03T05:30:29.229Z,28.00
2019-02-03T05:32:58.671Z,27.07
2019-02-03T05:35:28.113Z,23.70
2019-02-03T05:37:57.541Z,23.90
2019-02-03T05:40:26.993Z,23.50
2019-02-03T05:42:56.427Z,24.40
2019-02-03T05:45:25.881Z,26.20
2019-02-03T05:47:55.511Z,26.67
2019-02-03T05:50:25.065Z,24.20
2019-02-03T05:52:54.579Z,26.10
2019-02-03T05:55:24.043Z,27.40
2019-02-03T05:57:53.528Z,27.87
2019-02-03T06:00:30.641Z,24.50
2019-02-03T06:03:00.056Z,25.73
2019-02-03T06:05:29.495Z,28.73
2019-02-03T06:07:59.261Z,23.17
2019-02-03T06:10:28.966Z,26.47
2019-02-03T06:12:58.788Z,23.90
2019-02-03T06:15:28.293Z,24.07
2019-02-03T06:17:57.806Z,26.13
2019-02-03T06:20:27.356Z,23.40
2019-02-03T06:22:56.790Z,25.33
2019-02-03T06:25:26.241Z,23.80
2019-02-03T06:27:55.766Z,23.93
2019-02-03T06:31:18.873Z,21.13
2019-02-03T06:33:52.851Z,20.60
2019-02-03T06:36:23.232Z,24.40
2019-02-03T06:38:53.838Z,23.20
2019-02-03T06:41:23.290Z,24.33
2019-02-03T06:43:52.721Z,23.60
2019-02-03T06:46:43.884Z,30.93
2019-02-03T06:49:34.847Z,21.93
2019-02-03T06:52:04.797Z,21.67
2019-02-03T06:54:34.214Z,18.23
2019-02-03T06:57:03.821Z,27.17
2019-02-03T06:59:33.251Z,16.27
2019-02-03T07:02:03.222Z,18.83
2019-02-03T07:04:32.652Z,21.27
2019-02-03T07:07:02.106Z,22.50
2019-02-03T07:09:31.581Z,15.10
2019-02-03T07:12:01.036Z,22.10
2019-02-03T07:14:30.471Z,15.40
2019-02-03T07:16:59.930Z,19.23
2019-02-03T07:19:29.373Z,16.63
2019-02-03T07:21:58.821Z,18.20
2019-02-03T07:24:28.250Z,17.93
2019-02-03T07:26:57.690Z,15.17
2019-02-03T07:29:27.533Z,14.40
2019-02-03T07:31:56.988Z,14.77
2019-02-03T07:34:26.402Z,26.97
2019-02-03T07:36:55.853Z,15.67
2019-02-03T07:39:25.319Z,15.60
2019-02-03T07:41:54.865Z,19.73
2019-02-03T07:44:24.296Z,22.90
2019-02-03T07:46:53.743Z,14.73
2019-02-03T07:49:24.402Z,14.63
2019-02-03T07:51:53.849Z,16.83
2019-02-03T07:54:23.279Z,17.43
2019-02-03T07:56:53.129Z,12.47
2019-02-03T07:59:22.552Z,12.80
2019-02-03T08:01:52.004Z,14.10
2019-02-03T08:04:21.426Z,12.00
2019-02-03T08:06:50.876Z,13.43
2019-02-03T08:09:20.346Z,12.50
2019-02-03T08:11:49.990Z,13.90
2019-02-03T08:14:19.532Z,11.60
2019-02-03T08:16:48.972Z,11.63
2019-02-03T08:19:18.373Z,12.70
2019-02-03T08:21:47.798Z,10.13
2019-02-03T08:24:17.274Z,9.63
2019-02-03T08:26:46.684Z,9.63
2019-02-03T08:29:16.142Z,14.40
2019-02-03T08:31:45.694Z,11.23
2019-02-03T08:34:15.249Z,13.70
2019-02-03T08:36:44.665Z,10.07
2019-02-03T08:39:14.521Z,11.20
2019-02-03T08:41:43.928Z,11.37
2019-02-03T08:44:13.372Z,11.37
2019-02-03T08:46:42.792Z,10.20
2019-02-03T08:49:12.245Z,8.13
2019-02-03T08:51:41.778Z,9.63
2019-02-03T08:54:11.229Z,9.57
2019-02-03T08:56:40.652Z,9.50
2019-02-03T08:59:10.146Z,8.77
2019-02-03T09:01:39.566Z,10.27
2019-02-03T09:04:09.021Z,9.33
2019-02-03T09:06:38.838Z,8.63
2019-02-03T09:09:10.741Z,7.60
2019-02-03T09:11:40.161Z,7.50
2019-02-03T09:14:09.603Z,9.30
2019-02-03T09:16:39.025Z,8.43
2019-02-03T09:19:08.463Z,7.77
2019-02-03T09:21:37.924Z,9.60
2019-02-03T09:24:07.438Z,8.90
2019-02-03T09:26:37.163Z,7.83
2019-02-03T09:29:06.993Z,8.43
2019-02-03T09:31:36.524Z,8.20
2019-02-03T09:34:06.488Z,9.70
2019-02-03T09:36:35.932Z,9.83
2019-02-03T09:39:11.823Z,7.17
2019-02-03T09:41:41.266Z,18.33
2019-02-03T09:44:11.029Z,9.80
2019-02-03T09:46:42.072Z,10.27
2019-02-03T09:49:11.761Z,9.40
2019-02-03T09:51:41.226Z,8.63
2019-02-03T09:54:10.906Z,9.33
2019-02-03T09:56:40.553Z,9.53
2019-02-03T09:59:10.026Z,10.90
2019-02-03T10:01:39.673Z,10.20
2019-02-03T10:04:09.705Z,8.70
2019-02-03T10:06:39.137Z,11.63
2019-02-03T10:09:09.752Z,8.03
2019-02-03T10:11:39.718Z,8.97
2019-02-03T10:14:09.933Z,12.10
2019-02-03T10:16:39.574Z,8.73
2019-02-03T10:19:09.092Z,7.47
2019-02-03T10:21:38.722Z,7.13
2019-02-03T10:24:08.287Z,8.17
2019-02-03T10:26:38.150Z,7.60
2019-02-03T10:29:09.461Z,10.60
2019-02-03T10:31:38.987Z,8.90
2019-02-03T10:34:08.819Z,9.67
2019-02-03T10:36:38.380Z,10.93
2019-02-03T10:39:10.380Z,10.93
2019-02-03T10:41:40.355Z,9.17
2019-02-03T10:44:10.084Z,10.70
2019-02-03T10:46:39.683Z,12.57
2019-02-03T10:49:09.708Z,10.83
2019-02-03T10:51:39.156Z,8.50
2019-02-03T10:54:09.081Z,8.03
2019-02-03T10:56:38.534Z,12.07
2019-02-03T10:59:08.005Z,9.40
2019-02-03T11:01:37.469Z,8.50
2019-02-03T11:04:06.986Z,9.37
2019-02-03T11:06:36.439Z,9.37
2019-02-03T11:09:10.058Z,9.03
2019-02-03T11:11:39.770Z,10.13
2019-02-03T11:14:09.166Z,8.67
2019-02-03T11:16:38.597Z,10.70
2019-02-03T11:19:08.010Z,8.70
2019-02-03T11:21:37.965Z,11.50
2019-02-03T11:24:07.513Z,10.33
2019-02-03T11:26:37.044Z,10.03
2019-02-03T11:29:06.471Z,10.60
2019-02-03T11:31:36.016Z,10.67
2019-02-03T11:34:05.846Z,10.27
2019-02-03T11:36:35.289Z,11.33
2019-02-03T11:39:07.896Z,13.07
2019-02-03T11:41:48.298Z,14.00
2019-02-03T11:44:08.627Z,12.17
2019-02-03T11:46:38.068Z,16.40
2019-02-03T11:49:07.481Z,10.33
2019-02-03T11:51:36.950Z,13.33
2019-02-03T11:54:06.969Z,12.70
2019-02-03T11:56:36.760Z,12.53
2019-02-03T11:59:06.409Z,11.60
2019-02-03T12:01:35.862Z,12.80
2019-02-03T12:04:05.578Z,13.33
2019-02-03T12:06:35.017Z,14.23
2019-02-03T12:09:07.388Z,12.93
2019-02-03T12:11:36.918Z,15.90
2019-02-03T12:14:06.442Z,12.80
2019-02-03T12:16:57.597Z,15.23
2019-02-03T12:20:26.706Z,17.53
2019-02-03T12:22:56.770Z,15.00
2019-02-03T12:25:28.404Z,16.67
2019-02-03T12:27:57.854Z,19.23
2019-02-03T12:30:29.857Z,21.57
2019-02-03T12:32:59.797Z,24.00
2019-02-03T12:35:29.375Z,22.90
2019-02-03T12:37:59.223Z,22.43
2019-02-03T12:40:33.017Z,23.53
2019-02-03T12:43:02.657Z,21.90
2019-02-03T12:45:32.285Z,21.90
2019-02-03T12:48:01.742Z,22.10
2019-02-03T12:50:31.642Z,19.07
2019-02-03T12:53:01.172Z,23.83
2019-02-03T12:55:31.428Z,20.53
2019-02-03T12:58:00.929Z,22.97
2019-02-03T13:00:32.129Z,20.67
2019-02-03T13:03:01.963Z,21.60
2019-02-03T13:05:31.578Z,22.97
2019-02-03T13:08:02.041Z,20.93
2019-02-03T13:10:33.736Z,23.97
2019-02-03T13:13:03.217Z,23.30
2019-02-03T13:15:44.909Z,28.30
2019-02-03T13:18:14.919Z,32.73
2019-02-03T13:20:45.063Z,25.00
2019-02-03T13:23:14.967Z,29.37
2019-02-03T13:25:44.923Z,26.90
2019-02-03T13:28:14.440Z,30.87
2019-02-03T13:30:49.129Z,29.50
2019-02-03T13:33:21.860Z,29.00
2019-02-03T13:35:50.874Z,26.33
2019-02-03T13:38:20.961Z,27.60
2019-02-03T13:40:50.706Z,26.83
2019-02-03T13:43:20.643Z,26.77
2019-02-03T13:45:50.202Z,27.57
2019-02-03T13:48:20.125Z,28.27
2019-02-03T13:50:49.703Z,31.03
2019-02-03T13:53:19.361Z,28.07
2019-02-03T13:55:49.041Z,26.67
2019-02-03T13:58:19.598Z,25.20
2019-02-03T14:00:49.033Z,24.67
2019-02-03T14:03:18.505Z,31.03
2019-02-03T14:05:48.471Z,26.60
2019-02-03T14:08:18.250Z,24.67
2019-02-03T14:10:48.698Z,32.40
2019-02-03T14:13:18.423Z,29.37
2019-02-03T14:15:48.135Z,24.90
2019-02-03T14:18:17.572Z,27.53
2019-02-03T14:20:47.121Z,30.37
2019-02-03T14:23:17.030Z,30.17
2019-02-03T14:25:46.595Z,27.00
2019-02-03T14:28:16.137Z,29.70
2019-02-03T14:30:46.373Z,27.63
2019-02-03T14:33:16.245Z,26.80
2019-02-03T14:35:46.186Z,27.10
2019-02-03T14:38:15.641Z,32.40
2019-02-03T14:40:45.069Z,29.60
2019-02-03T14:43:14.512Z,30.90
2019-02-03T14:45:43.937Z,26.30
2019-02-03T14:48:13.362Z,28.63
2019-02-03T14:50:42.809Z,31.80
2019-02-03T14:53:14.671Z,29.70
2019-02-03T14:55:45.769Z,26.67
2019-02-03T14:58:15.410Z,29.60
2019-02-03T15:00:47.033Z,26.30
2019-02-03T15:03:24.759Z,31.53
2019-02-03T15:05:54.213Z,36.47
2019-02-03T15:08:23.796Z,26.40
2019-02-03T15:10:53.233Z,28.93
2019-02-03T15:13:22.740Z,30.33
2019-02-03T15:15:52.406Z,34.07
2019-02-03T15:18:22.081Z,24.20
2019-02-03T15:20:51.760Z,29.10
2019-02-03T15:23:22.449Z,27.30
2019-02-03T15:25:51.958Z,29.13
2019-02-03T15:28:21.382Z,24.57
2019-02-03T15:30:51.226Z,23.03
2019-02-03T15:33:21.336Z,28.40
2019-02-03T15:35:51.404Z,28.43
2019-02-03T15:38:21.132Z,23.07
2019-02-03T15:40:50.865Z,27.20
2019-02-03T15:43:25.603Z,21.63
2019-02-03T15:45:51.973Z,24.20
2019-02-03T15:48:21.705Z,21.93
2019-02-03T15:50:51.349Z,20.73
2019-02-03T15:53:21.324Z,19.87
2019-02-03T15:55:51.204Z,19.37
2019-02-03T15:58:21.464Z,22.53
2019-02-03T16:00:53.350Z,16.77
2019-02-03T16:03:23.370Z,20.50
2019-02-03T16:05:53.382Z,20.23
2019-02-03T16:08:23.137Z,20.53
2019-02-03T16:10:53.994Z,22.13
2019-02-03T16:13:23.512Z,19.60
2019-02-03T16:15:53.290Z,21.33
2019-02-03T16:18:23.555Z,21.73
2019-02-03T16:20:53.552Z,19.47
2019-02-03T16:23:23.217Z,18.63
2019-02-03T16:25:53.536Z,21.63
2019-02-03T16:28:23.203Z,24.60
2019-02-03T16:30:53.064Z,22.43
2019-02-03T16:33:22.553Z,21.60
2019-02-03T16:35:51.970Z,44.87
2019-02-03T16:38:23.290Z,21.67
2019-02-03T16:40:52.556Z,21.77
2019-02-03T16:43:22.019Z,21.23
2019-02-03T16:45:51.487Z,20.63
2019-02-03T16:48:20.902Z,21.47
2019-02-03T16:50:50.414Z,20.07
2019-02-03T16:53:19.932Z,17.30
2019-02-03T16:55:49.382Z,20.97
2019-02-03T16:58:18.869Z,19.27
2019-02-03T17:00:48.706Z,20.73
2019-02-03T17:03:18.166Z,15.83
2019-02-03T17:05:47.613Z,21.47
2019-02-03T17:08:17.129Z,17.63
2019-02-03T17:10:46.514Z,19.33
2019-02-03T17:13:16.046Z,21.10
2019-02-03T17:15:52.348Z,20.73
2019-02-03T17:18:21.842Z,22.13
2019-02-03T17:21:01.544Z,18.70
2019-02-03T17:23:22.386Z,18.30
2019-02-03T17:25:57.981Z,20.27
2019-02-03T17:28:27.429Z,22.30
2019-02-03T17:30:56.851Z,17.00
2019-02-03T17:33:26.319Z,20.67
2019-02-03T17:35:55.908Z,15.30
2019-02-03T17:38:25.368Z,23.38
2019-02-03T17:40:54.847Z,21.95
2019-02-03T17:43:24.309Z,19.30
2019-02-03T17:45:53.745Z,21.90
2019-02-03T17:48:23.398Z,20.10
2019-02-03T17:50:52.820Z,24.37
2019-02-03T17:53:22.351Z,28.87
2019-02-03T17:55:51.913Z,24.03
2019-02-03T17:58:21.412Z,20.80
2019-02-03T18:01:03.489Z,26.73
2019-02-03T18:03:32.993Z,21.70
2019-02-03T18:06:03.892Z,20.90
2019-02-03T18:08:33.341Z,22.07
2019-02-03T18:11:02.870Z,20.80
2019-02-03T18:13:32.338Z,18.30
2019-02-03T18:16:01.763Z,24.60
2019-02-03T18:18:31.232Z,18.77
2019-02-03T18:21:00.678Z,18.67
2019-02-03T18:23:30.317Z,20.13
2019-02-03T18:25:59.739Z,17.60
2019-02-03T18:28:29.210Z,19.33
2019-02-03T18:30:58.662Z,17.80
2019-02-03T18:33:29.424Z,18.97
2019-02-03T18:35:58.865Z,18.47
2019-02-03T18:38:28.333Z,17.47
2019-02-03T18:40:57.756Z,17.80
2019-02-03T18:43:27.214Z,16.23
2019-02-03T18:45:56.686Z,19.93
2019-02-03T18:48:26.385Z,18.93
2019-02-03T18:50:55.853Z,18.50
2019-02-03T18:53:25.317Z,20.53
2019-02-03T18:55:54.771Z,18.13
2019-02-03T18:58:24.225Z,20.67
2019-02-03T19:00:53.890Z,17.87
2019-02-03T19:03:23.320Z,21.07
2019-02-03T19:05:53.377Z,20.07
2019-02-03T19:08:22.822Z,20.80
2019-02-03T19:10:52.554Z,19.00
2019-02-03T19:13:21.985Z,20.33
2019-02-03T19:15:52.828Z,19.67
2019-02-03T19:18:22.624Z,22.43
2019-02-03T19:20:52.255Z,18.60
2019-02-03T19:23:21.927Z,18.23
2019-02-03T19:25:51.497Z,24.93
2019-02-03T19:28:21.001Z,18.40
2019-02-03T19:30:50.473Z,23.10
2019-02-03T19:33:19.940Z,22.67
2019-02-03T19:35:49.507Z,23.13
2019-02-03T19:38:19.063Z,19.67
2019-02-03T19:40:48.843Z,16.77
2019-02-03T19:43:18.365Z,22.87
2019-02-03T19:45:48.012Z,20.70
2019-02-03T19:48:17.629Z,21.63
2019-02-03T19:50:47.296Z,22.37
2019-02-03T19:53:16.845Z,20.60
2019-02-03T19:55:46.565Z,18.53
2019-02-03T19:58:16.674Z,18.53
2019-02-03T20:00:46.424Z,23.03
2019-02-03T20:03:15.997Z,21.17
2019-02-03T20:05:45.572Z,21.23
2019-02-03T20:08:15.040Z,22.73
2019-02-03T20:10:44.570Z,18.07
2019-02-03T20:13:16.007Z,20.27
2019-02-03T20:15:45.513Z,22.40
2019-02-03T20:18:15.266Z,22.33
2019-02-03T20:20:44.740Z,21.83
2019-02-03T20:23:14.381Z,23.30
2019-02-03T20:25:43.865Z,18.23
2019-02-03T20:28:13.428Z,22.30
2019-02-03T20:30:43.033Z,20.60
2019-02-03T20:33:12.703Z,18.47
2019-02-03T20:35:42.284Z,21.23
2019-02-03T20:38:12.132Z,20.23
2019-02-03T20:40:43.201Z,24.33
2019-02-03T20:43:12.949Z,20.67
2019-02-03T20:45:49.417Z,20.20
2019-02-03T20:48:13.855Z,24.00
2019-02-03T20:50:43.762Z,23.03
2019-02-03T20:53:13.328Z,24.27
2019-02-03T20:55:43.111Z,19.87
2019-02-03T20:58:12.735Z,24.53
2019-02-03T21:00:42.195Z,21.33
2019-02-03T21:03:11.715Z,24.00
2019-02-03T21:05:41.179Z,18.27
2019-02-03T21:08:10.849Z,21.23
2019-02-03T21:10:40.327Z,19.40
2019-02-03T21:13:11.453Z,22.63
2019-02-03T21:15:41.228Z,19.13
2019-02-03T21:18:11.094Z,21.47
2019-02-03T21:20:40.532Z,22.93
2019-02-03T21:23:10.105Z,17.60
2019-02-03T21:25:39.523Z,22.30
2019-02-03T21:28:09.317Z,20.13
2019-02-03T21:30:39.488Z,19.23
2019-02-03T21:33:09.228Z,23.73
2019-02-03T21:35:39.071Z,24.87
2019-02-03T21:38:09.666Z,22.87
2019-02-03T21:40:39.321Z,23.53
2019-02-03T21:43:09.113Z,22.73
2019-02-03T21:45:45.045Z,20.03
2019-02-03T21:48:10.569Z,20.57
2019-02-03T21:50:39.999Z,23.20
2019-02-03T21:53:09.559Z,24.93
2019-02-03T21:55:39.080Z,20.47
2019-02-03T21:58:09.063Z,22.50
2019-02-03T22:00:38.486Z,22.43
2019-02-03T22:03:07.952Z,24.67
2019-02-03T22:05:37.390Z,22.30
2019-02-03T22:08:06.984Z,19.80
2019-02-03T22:10:38.505Z,18.30
2019-02-03T22:13:08.090Z,22.93
2019-02-03T22:15:37.704Z,19.13
2019-02-03T22:18:07.258Z,20.00
2019-02-03T22:20:36.690Z,21.33
2019-02-03T22:23:06.517Z,21.00
2019-02-03T22:25:36.231Z,19.97
2019-02-03T22:28:05.820Z,21.10
2019-02-03T22:30:37.736Z,24.50
2019-02-03T22:33:08.086Z,21.67
2019-02-03T22:35:37.962Z,24.17
2019-02-03T22:38:08.937Z,21.00
2019-02-03T22:40:38.416Z,20.17
2019-02-03T22:43:07.911Z,21.13
2019-02-03T22:45:37.395Z,19.90
2019-02-03T22:48:08.004Z,19.80
2019-02-03T22:50:37.524Z,24.50
2019-02-03T22:53:07.000Z,21.53
2019-02-03T22:55:36.661Z,19.97
2019-02-03T22:58:06.218Z,19.47
2019-02-03T23:01:13.259Z,20.13
2019-02-03T23:03:53.651Z,23.30
2019-02-03T23:06:24.986Z,22.67
2019-02-03T23:08:55.441Z,22.63
2019-02-03T23:11:25.083Z,22.83
2019-02-03T23:13:54.554Z,24.30
2019-02-03T23:16:23.979Z,22.20
2019-02-03T23:18:53.561Z,25.53
2019-02-03T23:21:23.302Z,20.43
2019-02-03T23:23:52.954Z,24.10
2019-02-03T23:26:22.426Z,23.03
2019-02-03T23:28:51.875Z,24.90
2019-02-03T23:31:21.314Z,23.63
2019-02-03T23:33:50.743Z,22.97
2019-02-03T23:36:20.186Z,24.40
2019-02-03T23:38:49.612Z,20.53
2019-02-03T23:41:19.172Z,22.67
2019-02-03T23:43:50.089Z,25.87
2019-02-03T23:46:29.322Z,17.50
2019-02-03T23:48:50.604Z,24.63
2019-02-03T23:51:20.460Z,28.40
2019-02-03T23:53:49.885Z,21.17
2019-02-03T23:56:19.338Z,23.70
2019-02-03T23:58:48.799Z,21.10
